sensor_id;sensor_type;location;lat;lon;timestamp;temperature;humidity
16040;DHT22;8124;48.634;8.120;2023-10-13T00:01:29;23.60;55.80
16040;DHT22;8124;48.634;8.120;2023-10-13T00:06:32;23.60;55.70
16040;DHT22;8124;48.634;8.120;2023-10-13T00:11:36;23.70;55.80
16040;DHT22;8124;48.634;8.120;2023-10-13T00:16:39;23.70;55.70
16040;DHT22;8124;48.634;8.120;2023-10-13T00:21:42;23.60;55.50
16040;DHT22;8124;48.634;8.120;2023-10-13T00:26:47;23.70;55.60
16040;DHT22;8124;48.634;8.120;2023-10-13T00:31:50;23.70;55.60
16040;DHT22;8124;48.634;8.120;2023-10-13T00:36:54;23.60;55.40
16040;DHT22;8124;48.634;8.120;2023-10-13T00:42:13;23.60;55.40
16040;DHT22;8124;48.634;8.120;2023-10-13T00:47:27;23.60;55.30
16040;DHT22;8124;48.634;8.120;2023-10-13T00:52:51;23.60;55.20
16040;DHT22;8124;48.634;8.120;2023-10-13T00:57:55;23.60;55.20
16040;DHT22;8124;48.634;8.120;2023-10-13T01:03:01;23.60;55.20
16040;DHT22;8124;48.634;8.120;2023-10-13T01:08:08;23.60;55.00
16040;DHT22;8124;48.634;8.120;2023-10-13T01:13:15;23.60;55.00
16040;DHT22;8124;48.634;8.120;2023-10-13T01:18:19;23.70;55.00
16040;DHT22;8124;48.634;8.120;2023-10-13T01:23:25;23.60;54.80
16040;DHT22;8124;48.634;8.120;2023-10-13T01:28:30;23.70;54.80
16040;DHT22;8124;48.634;8.120;2023-10-13T01:33:45;23.70;54.70
16040;DHT22;8124;48.634;8.120;2023-10-13T01:38:50;23.50;54.50
16040;DHT22;8124;48.634;8.120;2023-10-13T01:43:53;23.60;54.50
16040;DHT22;8124;48.634;8.120;2023-10-13T01:48:58;23.40;54.40
16040;DHT22;8124;48.634;8.120;2023-10-13T01:54:03;23.40;54.40
16040;DHT22;8124;48.634;8.120;2023-10-13T01:59:06;23.30;54.40
16040;DHT22;8124;48.634;8.120;2023-10-13T02:04:10;23.20;54.40
16040;DHT22;8124;48.634;8.120;2023-10-13T02:09:16;23.20;54.50
16040;DHT22;8124;48.634;8.120;2023-10-13T02:14:27;23.10;54.60
16040;DHT22;8124;48.634;8.120;2023-10-13T02:19:30;23.10;54.80
16040;DHT22;8124;48.634;8.120;2023-10-13T02:24:34;22.90;54.80
16040;DHT22;8124;48.634;8.120;2023-10-13T02:29:41;23.00;55.20
16040;DHT22;8124;48.634;8.120;2023-10-13T02:34:47;22.90;55.60
16040;DHT22;8124;48.634;8.120;2023-10-13T02:39:51;22.80;55.50
16040;DHT22;8124;48.634;8.120;2023-10-13T02:44:54;22.80;55.70
16040;DHT22;8124;48.634;8.120;2023-10-13T02:49:59;22.80;56.10
16040;DHT22;8124;48.634;8.120;2023-10-13T02:55:15;22.80;56.30
16040;DHT22;8124;48.634;8.120;2023-10-13T03:00:27;22.70;56.60
16040;DHT22;8124;48.634;8.120;2023-10-13T03:05:34;22.80;57.10
16040;DHT22;8124;48.634;8.120;2023-10-13T03:10:42;22.70;57.30
16040;DHT22;8124;48.634;8.120;2023-10-13T03:15:49;22.70;57.70
16040;DHT22;8124;48.634;8.120;2023-10-13T03:20:52;22.70;58.20
16040;DHT22;8124;48.634;8.120;2023-10-13T03:26:00;22.80;58.60
16040;DHT22;8124;48.634;8.120;2023-10-13T03:31:10;22.60;58.90
16040;DHT22;8124;48.634;8.120;2023-10-13T03:36:19;22.60;59.20
16040;DHT22;8124;48.634;8.120;2023-10-13T03:41:51;22.50;59.70
16040;DHT22;8124;48.634;8.120;2023-10-13T03:46:58;22.50;60.10
16040;DHT22;8124;48.634;8.120;2023-10-13T03:52:19;22.40;60.50
16040;DHT22;8124;48.634;8.120;2023-10-13T03:57:26;22.50;61.40
16040;DHT22;8124;48.634;8.120;2023-10-13T04:02:29;22.60;62.30
16040;DHT22;8124;48.634;8.120;2023-10-13T04:07:33;22.40;63.00
16040;DHT22;8124;48.634;8.120;2023-10-13T04:13:03;22.40;63.90
16040;DHT22;8124;48.634;8.120;2023-10-13T04:18:24;22.20;64.90
16040;DHT22;8124;48.634;8.120;2023-10-13T04:23:36;22.20;65.90
16040;DHT22;8124;48.634;8.120;2023-10-13T04:29:05;22.00;66.80
16040;DHT22;8124;48.634;8.120;2023-10-13T04:34:12;22.10;68.30
16040;DHT22;8124;48.634;8.120;2023-10-13T04:39:21;22.00;69.30
16040;DHT22;8124;48.634;8.120;2023-10-13T04:44:38;21.80;69.90
16040;DHT22;8124;48.634;8.120;2023-10-13T04:49:50;21.90;71.10
16040;DHT22;8124;48.634;8.120;2023-10-13T04:55:03;22.00;71.60
16040;DHT22;8124;48.634;8.120;2023-10-13T05:00:20;21.80;71.70
16040;DHT22;8124;48.634;8.120;2023-10-13T05:05:43;21.90;72.30
16040;DHT22;8124;48.634;8.120;2023-10-13T05:11:04;22.00;72.50
16040;DHT22;8124;48.634;8.120;2023-10-13T05:16:26;22.00;72.30
16040;DHT22;8124;48.634;8.120;2023-10-13T05:21:47;22.10;71.90
16040;DHT22;8124;48.634;8.120;2023-10-13T05:27:07;22.20;71.50
16040;DHT22;8124;48.634;8.120;2023-10-13T05:32:29;22.30;71.10
16040;DHT22;8124;48.634;8.120;2023-10-13T05:37:50;22.30;70.50
16040;DHT22;8124;48.634;8.120;2023-10-13T05:43:10;22.30;69.90
16040;DHT22;8124;48.634;8.120;2023-10-13T05:48:32;22.40;69.50
16040;DHT22;8124;48.634;8.120;2023-10-13T05:54:05;22.40;69.00
16040;DHT22;8124;48.634;8.120;2023-10-13T05:59:26;22.40;68.50
16040;DHT22;8124;48.634;8.120;2023-10-13T06:04:48;22.40;67.90
16040;DHT22;8124;48.634;8.120;2023-10-13T06:10:08;22.40;67.30
16040;DHT22;8124;48.634;8.120;2023-10-13T06:15:29;22.40;66.50
16040;DHT22;8124;48.634;8.120;2023-10-13T06:27:03;22.50;64.90
16040;DHT22;8124;48.634;8.120;2023-10-13T06:39:30;22.60;63.20
16040;DHT22;8124;48.634;8.120;2023-10-13T06:58:16;23.00;60.50
16040;DHT22;8124;48.634;8.120;2023-10-13T07:03:26;23.00;59.70
16040;DHT22;8124;48.634;8.120;2023-10-13T07:08:29;23.10;59.20
16040;DHT22;8124;48.634;8.120;2023-10-13T07:13:34;23.20;58.70
16040;DHT22;8124;48.634;8.120;2023-10-13T07:18:41;23.30;58.30
16040;DHT22;8124;48.634;8.120;2023-10-13T07:23:51;23.40;57.90
16040;DHT22;8124;48.634;8.120;2023-10-13T07:29:12;23.60;57.50
16040;DHT22;8124;48.634;8.120;2023-10-13T07:34:16;23.80;57.40
16040;DHT22;8124;48.634;8.120;2023-10-13T07:39:28;23.90;57.10
16040;DHT22;8124;48.634;8.120;2023-10-13T07:44:37;24.20;57.00
16040;DHT22;8124;48.634;8.120;2023-10-13T07:49:48;24.30;56.70
16040;DHT22;8124;48.634;8.120;2023-10-13T07:54:53;24.30;56.20
16040;DHT22;8124;48.634;8.120;2023-10-13T08:00:03;24.50;56.00
16040;DHT22;8124;48.634;8.120;2023-10-13T08:05:14;24.70;55.70
16040;DHT22;8124;48.634;8.120;2023-10-13T08:10:26;24.80;55.30
16040;DHT22;8124;48.634;8.120;2023-10-13T08:15:33;25.00;55.00
16040;DHT22;8124;48.634;8.120;2023-10-13T08:20:40;25.10;54.50
16040;DHT22;8124;48.634;8.120;2023-10-13T08:25:43;25.20;54.10
16040;DHT22;8124;48.634;8.120;2023-10-13T08:31:05;25.30;53.80
16040;DHT22;8124;48.634;8.120;2023-10-13T08:36:25;25.40;53.40
16040;DHT22;8124;48.634;8.120;2023-10-13T08:41:32;25.30;52.70
16040;DHT22;8124;48.634;8.120;2023-10-13T08:46:57;25.40;53.00
16040;DHT22;8124;48.634;8.120;2023-10-13T08:52:14;25.60;52.20
16040;DHT22;8124;48.634;8.120;2023-10-13T08:57:47;25.80;51.90
16040;DHT22;8124;48.634;8.120;2023-10-13T09:02:53;25.90;51.50
16040;DHT22;8124;48.634;8.120;2023-10-13T09:08:25;25.70;50.80
16040;DHT22;8124;48.634;8.120;2023-10-13T09:13:36;25.80;50.40
16040;DHT22;8124;48.634;8.120;2023-10-13T09:18:48;25.70;49.80
16040;DHT22;8124;48.634;8.120;2023-10-13T09:23:54;25.50;49.10
16040;DHT22;8124;48.634;8.120;2023-10-13T09:29:18;25.40;48.70
16040;DHT22;8124;48.634;8.120;2023-10-13T09:34:23;25.60;48.50
16040;DHT22;8124;48.634;8.120;2023-10-13T09:39:32;25.60;48.20
16040;DHT22;8124;48.634;8.120;2023-10-13T09:44:50;25.80;48.10
16040;DHT22;8124;48.634;8.120;2023-10-13T09:50:00;26.00;48.10
16040;DHT22;8124;48.634;8.120;2023-10-13T09:55:21;26.00;47.80
16040;DHT22;8124;48.634;8.120;2023-10-13T10:00:29;26.10;48.20
16040;DHT22;8124;48.634;8.120;2023-10-13T10:05:57;26.30;47.40
16040;DHT22;8124;48.634;8.120;2023-10-13T10:11:45;26.30;47.00
16040;DHT22;8124;48.634;8.120;2023-10-13T10:16:59;26.40;46.70
16040;DHT22;8124;48.634;8.120;2023-10-13T10:22:11;26.50;46.40
16040;DHT22;8124;48.634;8.120;2023-10-13T10:27:24;26.60;46.10
16040;DHT22;8124;48.634;8.120;2023-10-13T10:32:37;26.60;45.80
16040;DHT22;8124;48.634;8.120;2023-10-13T10:37:45;26.60;45.40
16040;DHT22;8124;48.634;8.120;2023-10-13T10:42:51;26.70;45.10
16040;DHT22;8124;48.634;8.120;2023-10-13T10:47:55;26.90;45.00
16040;DHT22;8124;48.634;8.120;2023-10-13T10:53:04;26.90;44.80
16040;DHT22;8124;48.634;8.120;2023-10-13T10:58:10;27.00;44.50
16040;DHT22;8124;48.634;8.120;2023-10-13T11:03:30;27.10;44.20
16040;DHT22;8124;48.634;8.120;2023-10-13T11:08:41;27.10;44.00
16040;DHT22;8124;48.634;8.120;2023-10-13T11:13:45;27.20;43.80
16040;DHT22;8124;48.634;8.120;2023-10-13T11:19:00;27.20;43.50
16040;DHT22;8124;48.634;8.120;2023-10-13T11:24:06;27.30;43.40
16040;DHT22;8124;48.634;8.120;2023-10-13T11:29:12;27.50;43.30
16040;DHT22;8124;48.634;8.120;2023-10-13T11:34:15;27.80;43.40
16040;DHT22;8124;48.634;8.120;2023-10-13T11:39:20;27.80;43.20
16040;DHT22;8124;48.634;8.120;2023-10-13T11:44:26;27.90;42.90
16040;DHT22;8124;48.634;8.120;2023-10-13T11:49:45;27.90;42.60
16040;DHT22;8124;48.634;8.120;2023-10-13T11:54:51;28.00;42.50
16040;DHT22;8124;48.634;8.120;2023-10-13T11:59:54;27.90;42.10
16040;DHT22;8124;48.634;8.120;2023-10-13T12:05:17;27.90;41.80
16040;DHT22;8124;48.634;8.120;2023-10-13T12:10:30;28.00;41.70
16040;DHT22;8124;48.634;8.120;2023-10-13T12:15:41;28.20;41.60
16040;DHT22;8124;48.634;8.120;2023-10-13T12:20:54;28.20;41.40
16040;DHT22;8124;48.634;8.120;2023-10-13T12:26:00;27.90;40.80
16040;DHT22;8124;48.634;8.120;2023-10-13T12:31:08;27.80;40.60
16040;DHT22;8124;48.634;8.120;2023-10-13T12:36:14;27.70;40.30
16040;DHT22;8124;48.634;8.120;2023-10-13T12:41:34;27.70;40.10
16040;DHT22;8124;48.634;8.120;2023-10-13T12:46:55;27.80;40.10
16040;DHT22;8124;48.634;8.120;2023-10-13T12:52:16;27.70;39.80
16040;DHT22;8124;48.634;8.120;2023-10-13T12:57:22;27.70;39.70
16040;DHT22;8124;48.634;8.120;2023-10-13T13:02:26;27.80;39.70
16040;DHT22;8124;48.634;8.120;2023-10-13T13:07:31;27.80;39.50
16040;DHT22;8124;48.634;8.120;2023-10-13T13:12:46;27.80;39.20
16040;DHT22;8124;48.634;8.120;2023-10-13T13:17:52;27.70;38.90
16040;DHT22;8124;48.634;8.120;2023-10-13T13:22:55;27.80;38.90
16040;DHT22;8124;48.634;8.120;2023-10-13T13:28:06;27.70;38.70
16040;DHT22;8124;48.634;8.120;2023-10-13T13:33:10;27.60;38.40
16040;DHT22;8124;48.634;8.120;2023-10-13T13:38:14;27.60;38.30
16040;DHT22;8124;48.634;8.120;2023-10-13T13:43:25;27.50;38.10
16040;DHT22;8124;48.634;8.120;2023-10-13T13:48:40;27.80;38.30
16040;DHT22;8124;48.634;8.120;2023-10-13T13:53:44;28.00;38.40
16040;DHT22;8124;48.634;8.120;2023-10-13T13:58:51;28.20;38.40
16040;DHT22;8124;48.634;8.120;2023-10-13T14:03:55;28.30;38.30
16040;DHT22;8124;48.634;8.120;2023-10-13T14:09:05;28.30;38.00
16040;DHT22;8124;48.634;8.120;2023-10-13T14:14:17;28.20;37.70
16040;DHT22;8124;48.634;8.120;2023-10-13T14:19:36;28.30;37.50
16040;DHT22;8124;48.634;8.120;2023-10-13T14:24:43;28.20;37.20
16040;DHT22;8124;48.634;8.120;2023-10-13T14:29:50;28.20;37.00
16040;DHT22;8124;48.634;8.120;2023-10-13T14:34:56;28.20;36.70
16040;DHT22;8124;48.634;8.120;2023-10-13T14:40:03;28.20;36.60
16040;DHT22;8124;48.634;8.120;2023-10-13T14:45:47;28.20;36.40
16040;DHT22;8124;48.634;8.120;2023-10-13T15:04:42;28.30;35.80
16040;DHT22;8124;48.634;8.120;2023-10-13T15:10:51;28.40;35.70
16040;DHT22;8124;48.634;8.120;2023-10-13T15:16:41;28.30;35.40
16040;DHT22;8124;48.634;8.120;2023-10-13T15:22:40;28.30;35.30
16040;DHT22;8124;48.634;8.120;2023-10-13T15:35:08;28.20;34.90
16040;DHT22;8124;48.634;8.120;2023-10-13T15:40:52;28.20;34.70
16040;DHT22;8124;48.634;8.120;2023-10-13T15:45:59;28.10;34.50
16040;DHT22;8124;48.634;8.120;2023-10-13T15:51:22;28.00;34.40
16040;DHT22;8124;48.634;8.120;2023-10-13T15:56:27;28.00;34.20
16040;DHT22;8124;48.634;8.120;2023-10-13T16:01:33;27.90;34.10
16040;DHT22;8124;48.634;8.120;2023-10-13T16:06:37;27.80;34.00
16040;DHT22;8124;48.634;8.120;2023-10-13T16:11:42;27.70;33.90
16040;DHT22;8124;48.634;8.120;2023-10-13T16:16:48;27.60;33.70
16040;DHT22;8124;48.634;8.120;2023-10-13T16:21:53;27.40;33.60
16040;DHT22;8124;48.634;8.120;2023-10-13T16:26:57;27.30;33.50
16040;DHT22;8124;48.634;8.120;2023-10-13T16:32:00;27.30;33.50
16040;DHT22;8124;48.634;8.120;2023-10-13T16:37:04;27.10;33.20
16040;DHT22;8124;48.634;8.120;2023-10-13T16:42:11;27.00;33.10
16040;DHT22;8124;48.634;8.120;2023-10-13T16:47:14;26.90;33.10
16040;DHT22;8124;48.634;8.120;2023-10-13T16:52:17;26.70;32.90
16040;DHT22;8124;48.634;8.120;2023-10-13T16:57:22;26.60;32.90
16040;DHT22;8124;48.634;8.120;2023-10-13T17:02:25;26.50;32.80
16040;DHT22;8124;48.634;8.120;2023-10-13T17:07:29;26.50;32.80
16040;DHT22;8124;48.634;8.120;2023-10-13T17:12:33;26.40;32.70
16040;DHT22;8124;48.634;8.120;2023-10-13T17:17:36;26.30;32.70
16040;DHT22;8124;48.634;8.120;2023-10-13T17:22:40;26.30;32.90
16040;DHT22;8124;48.634;8.120;2023-10-13T17:27:45;26.10;32.70
16040;DHT22;8124;48.634;8.120;2023-10-13T17:32:48;25.90;32.60
16040;DHT22;8124;48.634;8.120;2023-10-13T17:37:51;25.90;32.60
16040;DHT22;8124;48.634;8.120;2023-10-13T17:42:55;25.70;32.50
16040;DHT22;8124;48.634;8.120;2023-10-13T17:47:59;25.80;32.50
16040;DHT22;8124;48.634;8.120;2023-10-13T17:53:03;25.80;32.50
16040;DHT22;8124;48.634;8.120;2023-10-13T17:58:07;25.90;32.40
16040;DHT22;8124;48.634;8.120;2023-10-13T18:03:11;25.90;32.30
16040;DHT22;8124;48.634;8.120;2023-10-13T18:08:14;26.00;32.40
16040;DHT22;8124;48.634;8.120;2023-10-13T18:13:18;26.00;32.20
16040;DHT22;8124;48.634;8.120;2023-10-13T18:18:21;26.00;32.10
16040;DHT22;8124;48.634;8.120;2023-10-13T18:23:24;26.00;32.00
16040;DHT22;8124;48.634;8.120;2023-10-13T18:28:29;26.10;31.90
16040;DHT22;8124;48.634;8.120;2023-10-13T18:33:34;26.10;31.80
16040;DHT22;8124;48.634;8.120;2023-10-13T18:38:39;26.20;31.80
16040;DHT22;8124;48.634;8.120;2023-10-13T18:43:43;26.10;31.60
16040;DHT22;8124;48.634;8.120;2023-10-13T18:48:47;26.10;31.40
16040;DHT22;8124;48.634;8.120;2023-10-13T18:53:59;26.10;31.40
16040;DHT22;8124;48.634;8.120;2023-10-13T18:59:05;26.00;31.20
16040;DHT22;8124;48.634;8.120;2023-10-13T19:04:11;26.10;31.20
16040;DHT22;8124;48.634;8.120;2023-10-13T19:09:14;26.10;31.10
16040;DHT22;8124;48.634;8.120;2023-10-13T19:14:28;26.10;31.10
16040;DHT22;8124;48.634;8.120;2023-10-13T19:19:32;26.10;31.00
16040;DHT22;8124;48.634;8.120;2023-10-13T19:24:36;26.20;31.00
16040;DHT22;8124;48.634;8.120;2023-10-13T19:29:41;26.20;30.90
16040;DHT22;8124;48.634;8.120;2023-10-13T19:34:46;26.20;30.90
16040;DHT22;8124;48.634;8.120;2023-10-13T19:39:55;26.20;30.80
16040;DHT22;8124;48.634;8.120;2023-10-13T19:45:03;26.10;30.60
16040;DHT22;8124;48.634;8.120;2023-10-13T19:50:10;26.00;30.60
16040;DHT22;8124;48.634;8.120;2023-10-13T20:00:56;26.00;30.40
16040;DHT22;8124;48.634;8.120;2023-10-13T20:06:16;26.00;30.40
16040;DHT22;8124;48.634;8.120;2023-10-13T20:11:24;26.00;30.30
16040;DHT22;8124;48.634;8.120;2023-10-13T20:16:31;25.90;30.20
16040;DHT22;8124;48.634;8.120;2023-10-13T20:21:34;26.00;30.20
16040;DHT22;8124;48.634;8.120;2023-10-13T20:26:38;25.90;30.00
16040;DHT22;8124;48.634;8.120;2023-10-13T20:31:46;25.90;30.00
16040;DHT22;8124;48.634;8.120;2023-10-13T20:36:59;25.90;30.00
16040;DHT22;8124;48.634;8.120;2023-10-13T20:42:09;25.90;29.90
16040;DHT22;8124;48.634;8.120;2023-10-13T20:47:14;25.90;30.00
16040;DHT22;8124;48.634;8.120;2023-10-13T20:52:19;25.90;29.90
16040;DHT22;8124;48.634;8.120;2023-10-13T20:57:22;25.90;29.90
16040;DHT22;8124;48.634;8.120;2023-10-13T21:02:29;25.90;29.80
16040;DHT22;8124;48.634;8.120;2023-10-13T21:07:34;25.80;29.80
16040;DHT22;8124;48.634;8.120;2023-10-13T21:12:37;25.80;29.80
16040;DHT22;8124;48.634;8.120;2023-10-13T21:17:43;25.90;29.80
16040;DHT22;8124;48.634;8.120;2023-10-13T21:22:49;25.90;29.80
16040;DHT22;8124;48.634;8.120;2023-10-13T21:27:55;25.90;29.80
16040;DHT22;8124;48.634;8.120;2023-10-13T21:33:00;25.80;29.80
16040;DHT22;8124;48.634;8.120;2023-10-13T21:38:03;25.80;29.80
16040;DHT22;8124;48.634;8.120;2023-10-13T21:43:06;25.80;29.80
16040;DHT22;8124;48.634;8.120;2023-10-13T21:48:11;25.80;29.80
16040;DHT22;8124;48.634;8.120;2023-10-13T21:53:14;25.80;29.80
16040;DHT22;8124;48.634;8.120;2023-10-13T21:58:18;25.80;29.80
16040;DHT22;8124;48.634;8.120;2023-10-13T22:03:22;25.80;29.90
16040;DHT22;8124;48.634;8.120;2023-10-13T22:08:27;25.70;29.90
16040;DHT22;8124;48.634;8.120;2023-10-13T22:13:31;25.70;29.90
16040;DHT22;8124;48.634;8.120;2023-10-13T22:18:40;25.70;30.00
16040;DHT22;8124;48.634;8.120;2023-10-13T22:23:43;25.60;30.00
16040;DHT22;8124;48.634;8.120;2023-10-13T22:28:48;25.60;30.00
16040;DHT22;8124;48.634;8.120;2023-10-13T22:33:54;25.60;30.10
16040;DHT22;8124;48.634;8.120;2023-10-13T22:38:58;25.50;30.20
16040;DHT22;8124;48.634;8.120;2023-10-13T22:44:01;25.40;30.20
16040;DHT22;8124;48.634;8.120;2023-10-13T22:49:09;25.40;30.40
16040;DHT22;8124;48.634;8.120;2023-10-13T22:54:16;25.30;30.60
16040;DHT22;8124;48.634;8.120;2023-10-13T22:59:19;25.20;30.80
16040;DHT22;8124;48.634;8.120;2023-10-13T23:04:27;25.10;31.00
16040;DHT22;8124;48.634;8.120;2023-10-13T23:09:34;25.10;31.30
16040;DHT22;8124;48.634;8.120;2023-10-13T23:14:37;25.00;31.60
16040;DHT22;8124;48.634;8.120;2023-10-13T23:19:46;25.10;32.00
16040;DHT22;8124;48.634;8.120;2023-10-13T23:24:51;25.00;32.30
16040;DHT22;8124;48.634;8.120;2023-10-13T23:29:54;25.00;32.70
16040;DHT22;8124;48.634;8.120;2023-10-13T23:34:58;24.90;33.00
16040;DHT22;8124;48.634;8.120;2023-10-13T23:40:02;24.90;33.40
16040;DHT22;8124;48.634;8.120;2023-10-13T23:45:15;24.90;33.90
16040;DHT22;8124;48.634;8.120;2023-10-13T23:50:22;24.80;34.40
16040;DHT22;8124;48.634;8.120;2023-10-13T23:55:29;24.80;35.10
